Terminal Aerodrome Forecast
Issued by NWS Nashville, TN

Current Version | Previous Version | Text Only | Print | Product List | Glossary On
Versions: 1 2 3 4 5 6 7 8 9 10 11 12
000
FTUS44 KOHX 041720
TAFBNA
TAF
KBNA 041720Z 0418/0518 VRB05KT P6SM FEW060 SCT070=

USA.gov is the U.S. government's official web portal to all federal, state and local government web resources and services.